createdAt,value
2024-02-24T00:01:58.502Z,95141.19
2024-02-24T00:04:25.841Z,95124.72
2024-02-24T00:06:52.593Z,95129.34
2024-02-24T00:09:19.288Z,95125.28
2024-02-24T00:11:45.929Z,95124.69
2024-02-24T00:14:12.720Z,95127.22
2024-02-24T00:16:39.356Z,95120.97
2024-02-24T00:19:06.809Z,95121.78
2024-02-24T00:21:33.789Z,95117.16
2024-02-24T00:24:00.476Z,95106.06
2024-02-24T00:26:27.257Z,95115.91
2024-02-24T00:28:53.885Z,95117.28
2024-02-24T00:31:20.550Z,95131.00
2024-02-24T00:33:47.161Z,95134.59
2024-02-24T00:36:13.775Z,95132.78
2024-02-24T00:38:40.479Z,95130.34
2024-02-24T00:41:07.148Z,95120.91
2024-02-24T00:43:34.057Z,95128.38
2024-02-24T00:46:01.463Z,95138.22
2024-02-24T00:48:30.142Z,95140.38
2024-02-24T00:50:56.906Z,95142.09
2024-02-24T00:53:23.696Z,95144.81
2024-02-24T00:55:50.390Z,95136.06
2024-02-24T00:58:16.954Z,95146.84
2024-02-24T01:00:43.613Z,95143.63
2024-02-24T01:03:10.190Z,95139.25
2024-02-24T01:05:37.308Z,95146.56
2024-02-24T01:08:04.368Z,95148.00
2024-02-24T01:10:31.036Z,95147.63
2024-02-24T01:12:57.635Z,95162.22
2024-02-24T01:15:25.623Z,95155.56
2024-02-24T01:17:57.258Z,95150.03
2024-02-24T01:20:25.845Z,95155.81
2024-02-24T01:22:58.777Z,95157.22
2024-02-24T01:25:25.435Z,95158.50
2024-02-24T01:27:52.058Z,95164.50
2024-02-24T01:30:18.698Z,95163.38
2024-02-24T01:32:45.469Z,95163.56
2024-02-24T01:35:12.299Z,95172.78
2024-02-24T01:37:39.018Z,95165.66
2024-02-24T01:40:09.468Z,95156.53
2024-02-24T01:42:36.140Z,95160.28
2024-02-24T01:45:03.254Z,95166.97
2024-02-24T01:47:30.364Z,95162.16
2024-02-24T01:49:57.556Z,95160.22
2024-02-24T01:52:25.356Z,95154.97
2024-02-24T01:54:56.677Z,95167.63
2024-02-24T01:57:25.863Z,95159.78
2024-02-24T01:59:52.551Z,95176.16
2024-02-24T02:02:19.222Z,95173.69
2024-02-24T02:04:45.842Z,95178.09
2024-02-24T02:07:12.552Z,95172.56
2024-02-24T02:09:59.005Z,95166.59
2024-02-24T02:12:26.621Z,95173.06
2024-02-24T02:14:53.317Z,95182.19
2024-02-24T02:17:20.668Z,95189.00
2024-02-24T02:19:47.642Z,95189.38
2024-02-24T02:22:18.784Z,95192.31
2024-02-24T02:24:46.770Z,95194.69
2024-02-24T02:27:13.466Z,95177.00
2024-02-24T02:29:40.204Z,95188.19
2024-02-24T02:32:09.163Z,95183.81
2024-02-24T02:34:36.160Z,95193.94
2024-02-24T02:37:02.853Z,95192.66
2024-02-24T02:39:29.604Z,95189.34
2024-02-24T02:41:56.143Z,95192.84
2024-02-24T02:44:24.502Z,95189.47
2024-02-24T02:46:51.704Z,95196.16
2024-02-24T02:49:18.701Z,95194.31
2024-02-24T02:51:46.045Z,95192.06
2024-02-24T02:54:12.646Z,95193.13
2024-02-24T02:56:39.240Z,95192.19
2024-02-24T02:59:05.865Z,95191.72
2024-02-24T03:01:32.547Z,95194.41
2024-02-24T03:03:59.234Z,95202.94
2024-02-24T03:06:26.378Z,95205.50
2024-02-24T03:08:56.750Z,95198.06
2024-02-24T03:15:37.123Z,95208.78
2024-02-24T03:18:04.227Z,95199.22
2024-02-24T03:20:30.916Z,95199.47
2024-02-24T03:22:57.586Z,95206.00
2024-02-24T03:25:24.288Z,95208.59
2024-02-24T03:27:50.841Z,95203.28
2024-02-24T03:30:17.727Z,95194.53
2024-02-24T03:32:50.189Z,95200.69
2024-02-24T03:35:16.909Z,95202.97
2024-02-24T03:37:43.766Z,95201.47
2024-02-24T03:40:12.477Z,95197.50
2024-02-24T03:42:39.043Z,95215.88
2024-02-24T03:45:06.390Z,95215.88
2024-02-24T03:47:33.079Z,95220.41
2024-02-24T03:49:59.769Z,95216.47
2024-02-24T03:52:26.339Z,95214.81
2024-02-24T03:54:52.999Z,95225.41
2024-02-24T03:57:19.572Z,95219.66
2024-02-24T03:59:46.169Z,95229.22
2024-02-24T04:02:12.838Z,95248.22
2024-02-24T04:04:39.438Z,95248.63
2024-02-24T04:07:06.771Z,95247.78
2024-02-24T04:09:33.324Z,95246.31
2024-02-24T04:12:00.037Z,95250.03
2024-02-24T04:14:28.055Z,95254.94
2024-02-24T04:16:55.365Z,95247.72
2024-02-24T04:19:22.284Z,95238.69
2024-02-24T04:21:48.985Z,95250.22
2024-02-24T04:24:15.608Z,95256.19
2024-02-24T04:26:42.975Z,95238.41
2024-02-24T04:29:09.584Z,95248.25
2024-02-24T04:31:36.165Z,95239.50
2024-02-24T04:34:02.840Z,95256.16
2024-02-24T04:36:29.570Z,95247.38
2024-02-24T04:38:56.185Z,95248.22
2024-02-24T04:41:22.912Z,95251.63
2024-02-24T04:43:49.460Z,95247.94
2024-02-24T04:46:15.995Z,95258.78
2024-02-24T04:48:43.778Z,95260.75
2024-02-24T04:51:10.570Z,95243.47
2024-02-24T04:53:37.193Z,95256.00
2024-02-24T04:56:04.002Z,95265.75
2024-02-24T04:58:30.622Z,95254.53
2024-02-24T05:00:57.350Z,95269.59
2024-02-24T05:03:24.190Z,95268.59
2024-02-24T05:05:50.785Z,95272.25
2024-02-24T05:08:17.521Z,95278.06
2024-02-24T05:10:44.160Z,95267.38
2024-02-24T05:13:10.753Z,95275.47
2024-02-24T05:15:37.420Z,95276.72
2024-02-24T05:18:04.547Z,95266.41
2024-02-24T05:20:32.307Z,95239.50
2024-02-24T05:22:58.954Z,95236.94
2024-02-24T05:25:25.553Z,95291.78
2024-02-24T05:27:52.039Z,95271.00
2024-02-24T05:30:18.528Z,95259.63
2024-02-24T05:32:45.270Z,95296.84
2024-02-24T05:35:12.194Z,95301.16
2024-02-24T05:37:38.724Z,95286.13
2024-02-24T05:40:05.829Z,95300.09
2024-02-24T05:42:32.386Z,95270.66
2024-02-24T05:44:59.035Z,95285.75
2024-02-24T05:47:25.875Z,95271.00
2024-02-24T05:49:52.450Z,95315.72
2024-02-24T05:52:19.531Z,95308.13
2024-02-24T05:54:46.178Z,95296.59
2024-02-24T05:57:12.714Z,95323.50
2024-02-24T05:59:39.354Z,95325.63
2024-02-24T06:02:05.840Z,95335.53
2024-02-24T06:04:32.609Z,95336.91
2024-02-24T06:06:59.264Z,95343.44
2024-02-24T06:09:26.696Z,95335.81
2024-02-24T06:11:53.510Z,95317.97
2024-02-24T06:14:20.306Z,95334.25
2024-02-24T06:16:46.850Z,95318.97
2024-02-24T06:19:14.612Z,95352.97
2024-02-24T06:21:41.355Z,95321.59
2024-02-24T06:24:07.995Z,95332.44
2024-02-24T06:26:34.550Z,95375.16
2024-02-24T06:29:01.219Z,95356.41
2024-02-24T06:31:27.912Z,95355.72
2024-02-24T06:33:55.275Z,95372.28
2024-02-24T06:36:22.029Z,95367.44
2024-02-24T06:38:50.001Z,95353.75
2024-02-24T06:41:19.150Z,95365.53
2024-02-24T06:43:46.304Z,95363.38
2024-02-24T06:46:12.852Z,95354.34
2024-02-24T06:48:39.463Z,95375.97
2024-02-24T06:51:06.067Z,95373.44
2024-02-24T06:53:32.634Z,95371.28
2024-02-24T06:56:05.715Z,95396.78
2024-02-24T06:58:32.970Z,95401.03
2024-02-24T07:00:59.543Z,95389.44
2024-02-24T07:03:26.287Z,95404.38
2024-02-24T07:05:53.001Z,95398.34
2024-02-24T07:08:19.578Z,95422.69
2024-02-24T07:10:46.396Z,95421.06
2024-02-24T07:13:12.962Z,95408.44
2024-02-24T07:15:39.896Z,95409.13
2024-02-24T07:18:06.844Z,95417.53
2024-02-24T07:20:33.551Z,95414.94
2024-02-24T07:23:00.220Z,95441.84
2024-02-24T07:25:26.759Z,95445.84
2024-02-24T07:27:53.320Z,95424.75
2024-02-24T07:30:19.950Z,95443.75
2024-02-24T07:32:47.804Z,95465.91
2024-02-24T07:35:14.552Z,95468.69
2024-02-24T07:37:41.116Z,95480.28
2024-02-24T07:40:08.310Z,95488.66
2024-02-24T07:42:34.915Z,95487.13
2024-02-24T07:45:02.204Z,95493.94
2024-02-24T07:47:28.919Z,95494.53
2024-02-24T07:49:55.593Z,95519.66
2024-02-24T07:52:22.165Z,95490.38
2024-02-24T07:54:48.681Z,95515.31
2024-02-24T07:57:15.407Z,95506.34
2024-02-24T07:59:42.229Z,95518.69
2024-02-24T08:02:08.839Z,95506.56
2024-02-24T08:04:35.524Z,95520.72
2024-02-24T08:07:02.406Z,95509.25
2024-02-24T08:09:29.111Z,95542.59
2024-02-24T08:11:55.846Z,95526.44
2024-02-24T08:14:22.531Z,95512.53
2024-02-24T08:16:49.093Z,95552.94
2024-02-24T08:19:16.580Z,95541.69
2024-02-24T08:21:43.113Z,95540.56
2024-02-24T08:24:10.364Z,95556.16
2024-02-24T08:26:40.681Z,95543.28
2024-02-24T08:29:09.154Z,95514.00
2024-02-24T08:31:36.397Z,95553.06
2024-02-24T08:34:03.489Z,95555.09
2024-02-24T08:36:30.280Z,95550.31
2024-02-24T08:39:01.092Z,95530.91
2024-02-24T08:41:28.684Z,95560.56
2024-02-24T08:43:55.257Z,95551.22
2024-02-24T08:46:21.789Z,95569.03
2024-02-24T08:48:48.371Z,95586.16
2024-02-24T08:51:14.929Z,95580.63
2024-02-24T08:53:41.701Z,95575.88
2024-02-24T08:56:08.254Z,95587.34
2024-02-24T08:58:34.863Z,95583.69
2024-02-24T09:01:01.986Z,95589.91
2024-02-24T09:03:28.562Z,95600.47
2024-02-24T09:05:55.176Z,95598.13
2024-02-24T09:08:21.796Z,95581.78
2024-02-24T09:10:48.842Z,95612.63
2024-02-24T09:14:50.130Z,95600.63
2024-02-24T09:17:17.257Z,95598.84
2024-02-24T09:19:44.436Z,95594.28
2024-02-24T09:24:59.114Z,95590.50
2024-02-24T09:27:25.938Z,95611.44
2024-02-24T09:29:52.682Z,95609.72
2024-02-24T09:32:19.793Z,95620.19
2024-02-24T09:34:46.520Z,95626.63
2024-02-24T09:37:13.294Z,95625.69
2024-02-24T09:39:44.060Z,95625.66
2024-02-24T09:42:12.141Z,95624.97
2024-02-24T09:44:39.979Z,95615.84
2024-02-24T09:47:07.101Z,95630.69
2024-02-24T09:49:33.897Z,95628.66
2024-02-24T09:52:00.993Z,95635.31
2024-02-24T09:54:29.277Z,95626.97
2024-02-24T09:56:57.523Z,95616.75
2024-02-24T09:59:26.114Z,95598.94
2024-02-24T10:01:52.961Z,95611.69
2024-02-24T10:04:20.078Z,95611.53
2024-02-24T10:06:47.056Z,95608.09
2024-02-24T10:09:13.829Z,95611.38
2024-02-24T10:11:41.337Z,95629.06
2024-02-24T10:14:08.961Z,95629.75
2024-02-24T10:16:39.432Z,95623.16
2024-02-24T10:19:07.239Z,95630.97
2024-02-24T10:21:35.360Z,95613.00
2024-02-24T10:24:03.936Z,95640.41
2024-02-24T10:26:31.011Z,95641.06
2024-02-24T10:28:58.016Z,95647.41
2024-02-24T10:31:25.178Z,95653.81
2024-02-24T10:33:53.988Z,95656.81
2024-02-24T10:36:20.802Z,95664.31
2024-02-24T10:38:55.494Z,95660.84
2024-02-24T10:41:26.793Z,95657.03
2024-02-24T10:44:06.084Z,95647.50
2024-02-24T10:46:44.417Z,95665.16
2024-02-24T10:49:12.262Z,95659.50
2024-02-24T10:51:39.675Z,95657.03
2024-02-24T10:54:13.689Z,95649.19
2024-02-24T10:56:41.085Z,95652.13
2024-02-24T10:59:09.144Z,95647.75
2024-02-24T11:01:44.576Z,95658.34
2024-02-24T11:04:13.150Z,95636.91
2024-02-24T11:06:47.246Z,95659.03
2024-02-24T11:09:16.050Z,95660.78
2024-02-24T11:11:43.880Z,95658.00
2024-02-24T11:14:10.796Z,95650.75
2024-02-24T11:16:39.865Z,95641.69
2024-02-24T11:19:12.719Z,95654.50
2024-02-24T11:22:03.449Z,95652.28
2024-02-24T11:24:32.005Z,95655.72
2024-02-24T11:26:58.756Z,95662.25
2024-02-24T11:29:30.742Z,95654.41
2024-02-24T11:32:15.457Z,95650.75
2024-02-24T11:34:46.798Z,95644.47
2024-02-24T11:37:18.405Z,95651.53
2024-02-24T11:39:48.055Z,95656.75
2024-02-24T11:42:15.255Z,95642.56
2024-02-24T11:44:47.366Z,95645.75
2024-02-24T11:47:18.623Z,95645.69
2024-02-24T11:49:46.694Z,95638.78
2024-02-24T11:52:14.656Z,95636.34
2024-02-24T11:54:41.668Z,95638.13
2024-02-24T11:57:08.654Z,95635.19
2024-02-24T11:59:38.372Z,95638.63
2024-02-24T12:02:05.618Z,95635.94
2024-02-24T12:04:32.248Z,95622.00
2024-02-24T12:06:59.978Z,95618.91
2024-02-24T12:09:26.695Z,95633.13
2024-02-24T12:11:53.597Z,95635.25
2024-02-24T12:14:20.657Z,95635.94
2024-02-24T12:16:47.816Z,95631.56
2024-02-24T12:19:14.724Z,95639.47
2024-02-24T12:21:42.457Z,95636.84
2024-02-24T12:24:10.251Z,95636.63
2024-02-24T12:26:36.884Z,95629.38
2024-02-24T12:29:05.365Z,95629.63
2024-02-24T12:31:32.073Z,95635.91
2024-02-24T12:33:59.220Z,95629.88
2024-02-24T12:36:26.380Z,95629.59
2024-02-24T12:38:53.046Z,95643.59
2024-02-24T12:41:19.915Z,95641.94
2024-02-24T12:43:46.490Z,95627.00
2024-02-24T12:46:13.086Z,95640.91
2024-02-24T12:48:43.447Z,95625.69
2024-02-24T12:51:12.021Z,95633.03
2024-02-24T12:53:38.635Z,95621.69
2024-02-24T12:56:05.359Z,95645.09
2024-02-24T12:58:32.035Z,95644.31
2024-02-24T13:00:59.089Z,95638.53
2024-02-24T13:03:25.953Z,95645.34
2024-02-24T13:05:52.738Z,95649.28
2024-02-24T13:08:19.655Z,95644.34
2024-02-24T13:10:46.608Z,95643.28
2024-02-24T13:13:13.403Z,95632.16
2024-02-24T13:15:40.061Z,95630.38
2024-02-24T13:18:07.127Z,95643.22
2024-02-24T13:20:34.000Z,95603.88
2024-02-24T13:23:00.672Z,95634.34
2024-02-24T13:25:27.823Z,95615.19
2024-02-24T13:27:54.630Z,95629.38
2024-02-24T13:30:22.693Z,95632.22
2024-02-24T13:32:50.146Z,95641.66
2024-02-24T13:35:17.129Z,95641.59
2024-02-24T13:37:43.880Z,95640.03
2024-02-24T13:40:11.086Z,95649.78
2024-02-24T13:42:37.856Z,95653.44
2024-02-24T13:45:07.238Z,95655.50
2024-02-24T13:47:34.790Z,95657.78
2024-02-24T13:50:01.645Z,95654.47
2024-02-24T13:52:29.146Z,95630.53
2024-02-24T13:54:55.704Z,95645.75
2024-02-24T13:57:22.515Z,95644.13
2024-02-24T13:59:49.547Z,95638.03
2024-02-24T14:02:16.280Z,95637.72
2024-02-24T14:04:42.891Z,95665.22
2024-02-24T14:07:10.512Z,95662.63
2024-02-24T14:09:37.441Z,95661.78
2024-02-24T14:12:05.270Z,95660.84
2024-02-24T14:14:32.980Z,95662.44
2024-02-24T14:16:59.617Z,95677.81
2024-02-24T14:19:26.261Z,95673.13
2024-02-24T14:21:53.112Z,95671.03
2024-02-24T14:24:19.634Z,95685.81
2024-02-24T14:26:46.483Z,95684.50
2024-02-24T14:29:13.779Z,95657.31
2024-02-24T14:31:40.485Z,95659.41
2024-02-24T14:34:06.968Z,95692.47
2024-02-24T14:36:33.641Z,95681.44
2024-02-24T14:39:00.555Z,95674.41
2024-02-24T14:41:28.003Z,95680.94
2024-02-24T14:43:54.754Z,95659.09
2024-02-24T14:46:21.354Z,95681.75
2024-02-24T14:48:49.563Z,95690.06
2024-02-24T14:51:17.989Z,95682.44
2024-02-24T14:53:44.875Z,95687.91
2024-02-24T14:56:11.545Z,95698.22
2024-02-24T14:58:39.364Z,95676.75
2024-02-24T15:01:05.953Z,95672.28
2024-02-24T15:06:04.445Z,95694.69
2024-02-24T15:08:31.872Z,95702.41
2024-02-24T15:10:58.501Z,95702.84
2024-02-24T15:13:29.395Z,95705.69
2024-02-24T15:15:58.558Z,95715.56
2024-02-24T15:18:25.351Z,95699.97
2024-02-24T15:20:52.058Z,95698.88
2024-02-24T15:23:18.734Z,95699.38
2024-02-24T15:25:47.751Z,95698.88
2024-02-24T15:28:14.932Z,95708.34
2024-02-24T15:30:41.855Z,95712.28
2024-02-24T15:33:08.647Z,95696.13
2024-02-24T15:35:35.375Z,95702.22
2024-02-24T15:38:01.950Z,95712.50
2024-02-24T15:40:30.812Z,95710.00
2024-02-24T15:42:59.852Z,95715.22
2024-02-24T15:45:26.468Z,95695.69
2024-02-24T15:47:53.196Z,95694.16
2024-02-24T15:50:23.312Z,95715.97
2024-02-24T15:52:50.282Z,95690.13
2024-02-24T15:55:16.946Z,95702.31
2024-02-24T15:57:47.029Z,95691.47
2024-02-24T16:00:13.901Z,95688.94
2024-02-24T16:02:42.804Z,95697.25
2024-02-24T16:05:10.226Z,95697.13
2024-02-24T16:07:36.879Z,95690.59
2024-02-24T16:10:03.805Z,95688.34
2024-02-24T16:12:30.334Z,95690.09
2024-02-24T16:14:57.056Z,95711.06
2024-02-24T16:17:23.731Z,95723.88
2024-02-24T16:19:51.127Z,95711.66
2024-02-24T16:22:17.886Z,95719.34
2024-02-24T16:24:44.634Z,95727.16
2024-02-24T16:27:11.320Z,95738.53
2024-02-24T16:29:38.091Z,95678.50
2024-02-24T16:32:07.503Z,95648.25
2024-02-24T16:34:36.610Z,95719.56
2024-02-24T16:37:03.678Z,95742.25
2024-02-24T16:39:33.220Z,95729.13
2024-02-24T16:42:00.306Z,95740.00
2024-02-24T16:44:28.011Z,95730.22
2024-02-24T16:46:55.883Z,95718.03
2024-02-24T16:49:23.007Z,95725.13
2024-02-24T16:51:52.832Z,95727.59
2024-02-24T16:54:19.484Z,95713.72
2024-02-24T16:56:46.125Z,95730.56
2024-02-24T16:59:12.849Z,95750.28
2024-02-24T17:01:39.480Z,95741.13
2024-02-24T17:04:06.164Z,95727.13
2024-02-24T17:06:32.968Z,95744.91
2024-02-24T17:08:59.702Z,95751.81
2024-02-24T17:11:28.481Z,95764.81
2024-02-24T17:13:55.321Z,95754.16
2024-02-24T17:16:21.869Z,95766.75
2024-02-24T17:18:48.556Z,95743.69
2024-02-24T17:21:15.333Z,95776.81
2024-02-24T17:23:43.014Z,95759.84
2024-02-24T17:26:10.147Z,95784.75
2024-02-24T17:28:36.681Z,95759.72
2024-02-24T17:31:03.711Z,95748.06
2024-02-24T17:33:30.327Z,95713.00
2024-02-24T17:35:57.019Z,95795.56
2024-02-24T17:38:25.223Z,95788.66
2024-02-24T17:40:51.866Z,95795.31
2024-02-24T17:43:18.407Z,95794.66
2024-02-24T17:45:44.968Z,95788.84
2024-02-24T17:48:11.739Z,95820.22
2024-02-24T17:50:38.383Z,95830.81
2024-02-24T17:53:04.912Z,95770.78
2024-02-24T17:55:31.623Z,95845.13
2024-02-24T17:57:58.097Z,95826.78
2024-02-24T18:00:24.684Z,95819.53
2024-02-24T18:02:51.216Z,95830.16
2024-02-24T18:05:18.861Z,95825.53
2024-02-24T18:07:45.637Z,95854.16
2024-02-24T18:10:13.454Z,95852.81
2024-02-24T18:12:40.198Z,95848.28
2024-02-24T18:15:07.598Z,95846.00
2024-02-24T18:17:34.428Z,95833.88
2024-02-24T18:20:01.121Z,95867.84
2024-02-24T18:22:28.041Z,95789.91
2024-02-24T18:24:54.539Z,95846.78
2024-02-24T18:27:21.259Z,95847.56
2024-02-24T18:29:47.863Z,95853.66
2024-02-24T18:32:14.444Z,95848.66
2024-02-24T18:34:41.204Z,95869.78
2024-02-24T18:37:07.975Z,95871.00
2024-02-24T18:39:35.326Z,95861.03
2024-02-24T18:42:03.138Z,95856.72
2024-02-24T18:44:29.841Z,95838.94
2024-02-24T18:46:57.429Z,95843.59
2024-02-24T18:49:24.297Z,95870.88
2024-02-24T18:51:50.890Z,95855.28
2024-02-24T18:54:17.422Z,95854.31
2024-02-24T18:56:44.002Z,95837.53
2024-02-24T18:59:10.599Z,95843.72
2024-02-24T19:01:37.231Z,95836.50
2024-02-24T19:04:04.372Z,95788.91
2024-02-24T19:06:31.037Z,95808.56
2024-02-24T19:08:57.716Z,95804.72
2024-02-24T19:11:24.437Z,95856.34
2024-02-24T19:13:51.013Z,95823.53
2024-02-24T19:16:17.593Z,95878.03
2024-02-24T19:18:44.332Z,95894.19
2024-02-24T19:21:11.105Z,95844.78
2024-02-24T19:23:38.865Z,95888.09
2024-02-24T19:26:05.763Z,95891.88
2024-02-24T19:28:32.482Z,95891.94
2024-02-24T19:30:59.692Z,95866.47
2024-02-24T19:33:26.515Z,95872.94
2024-02-24T19:35:53.160Z,95897.41
2024-02-24T19:38:19.994Z,95872.81
2024-02-24T19:40:47.790Z,95886.75
2024-02-24T19:43:14.388Z,95883.78
2024-02-24T19:45:42.584Z,95895.84
2024-02-24T19:48:09.642Z,95872.25
2024-02-24T19:50:36.325Z,95900.25
2024-02-24T19:53:02.972Z,95891.72
2024-02-24T19:55:29.538Z,95830.50
2024-02-24T19:57:56.073Z,95902.22
2024-02-24T20:00:22.807Z,95903.41
2024-02-24T20:02:49.325Z,95902.66
2024-02-24T20:05:19.942Z,95887.31
2024-02-24T20:07:46.750Z,95903.78
2024-02-24T20:10:13.778Z,95885.75
2024-02-24T20:12:40.386Z,95862.44
2024-02-24T20:15:07.622Z,95885.72
2024-02-24T20:17:34.421Z,95904.78
2024-02-24T20:20:01.228Z,95897.47
2024-02-24T20:22:28.035Z,95909.59
2024-02-24T20:24:54.587Z,95898.97
2024-02-24T20:27:21.132Z,95920.41
2024-02-24T20:29:47.744Z,95928.06
2024-02-24T20:32:14.770Z,95912.34
2024-02-24T20:34:41.584Z,95900.84
2024-02-24T20:37:08.287Z,95897.09
2024-02-24T20:39:34.775Z,95904.22
2024-02-24T20:42:01.519Z,95900.75
2024-02-24T20:44:28.111Z,95914.59
2024-02-24T20:46:54.650Z,95917.56
2024-02-24T20:49:25.843Z,95934.41
2024-02-24T20:51:58.421Z,95925.88
2024-02-24T20:54:26.781Z,95920.97
2024-02-24T20:56:53.434Z,95944.81
2024-02-24T20:59:20.000Z,95897.13
2024-02-24T21:01:46.653Z,95906.75
2024-02-24T21:04:13.244Z,95936.31
2024-02-24T21:06:43.416Z,95924.78
2024-02-24T21:09:10.851Z,95915.16
2024-02-24T21:11:37.514Z,95940.50
2024-02-24T21:14:04.082Z,95939.84
2024-02-24T21:16:30.598Z,95900.78
2024-02-24T21:18:57.562Z,95939.25
2024-02-24T21:21:26.098Z,95903.13
2024-02-24T21:23:55.386Z,95915.69
2024-02-24T21:26:23.977Z,95914.28
2024-02-24T21:28:52.130Z,95937.38
2024-02-24T21:31:19.831Z,95929.63
2024-02-24T21:33:46.706Z,95945.31
2024-02-24T21:36:13.593Z,95920.31
2024-02-24T21:38:40.173Z,95911.75
2024-02-24T21:41:06.730Z,95941.59
2024-02-24T21:43:33.333Z,95930.84
2024-02-24T21:46:00.177Z,95932.78
2024-02-24T21:48:27.629Z,95880.25
2024-02-24T21:50:55.365Z,95932.25
2024-02-24T21:53:21.943Z,95909.84
2024-02-24T21:55:48.439Z,95894.56
2024-02-24T21:58:15.092Z,95908.44
2024-02-24T22:00:41.583Z,95939.25
2024-02-24T22:03:08.396Z,95925.56
2024-02-24T22:05:35.075Z,95927.16
2024-02-24T22:08:01.887Z,95931.78
2024-02-24T22:10:29.304Z,95912.97
2024-02-24T22:12:56.036Z,95909.38
2024-02-24T22:15:23.820Z,95929.06
2024-02-24T22:17:50.419Z,95930.44
2024-02-24T22:20:17.113Z,95935.25
2024-02-24T22:22:43.759Z,95921.00
2024-02-24T22:25:10.320Z,95954.59
2024-02-24T22:27:38.547Z,95940.84
2024-02-24T22:30:13.320Z,95943.25
2024-02-24T22:32:44.101Z,95939.84
2024-02-24T22:35:11.132Z,95910.88
2024-02-24T22:37:38.332Z,95937.13
2024-02-24T22:40:05.639Z,95943.25
2024-02-24T22:42:34.660Z,95943.66
2024-02-24T22:45:03.028Z,95936.53
2024-02-24T22:47:30.136Z,95920.81
2024-02-24T22:49:56.883Z,95912.09
2024-02-24T22:52:23.553Z,95938.34
2024-02-24T22:54:50.599Z,95938.75
2024-02-24T22:57:17.871Z,95938.38
2024-02-24T22:59:44.556Z,95932.28
2024-02-24T23:17:53.593Z,95935.09
2024-02-24T23:20:20.368Z,95925.75
2024-02-24T23:22:46.938Z,95939.66
2024-02-24T23:25:13.975Z,95941.81
2024-02-24T23:27:40.607Z,95938.59
2024-02-24T23:30:08.147Z,95942.97
2024-02-24T23:32:34.938Z,95942.75
2024-02-24T23:35:01.582Z,95948.31
2024-02-24T23:37:28.235Z,95946.72
2024-02-24T23:39:54.810Z,95942.72
2024-02-24T23:42:21.479Z,95941.91
2024-02-24T23:44:48.098Z,95944.94
2024-02-24T23:47:14.988Z,95939.75
2024-02-24T23:49:42.628Z,95946.94
2024-02-24T23:52:09.271Z,95951.09
2024-02-24T23:54:35.995Z,95935.38
2024-02-24T23:57:02.676Z,95939.00
2024-02-24T23:59:29.291Z,95941.16
